createdAt,value
2022-09-06T00:00:37.068Z,21.35
2022-09-06T00:03:04.167Z,21.37
2022-09-06T00:05:31.996Z,21.47
2022-09-06T00:08:00.155Z,21.07
2022-09-06T00:10:28.425Z,20.92
2022-09-06T00:12:55.414Z,20.96
2022-09-06T00:15:22.468Z,20.82
2022-09-06T00:17:49.208Z,20.84
2022-09-06T00:20:15.657Z,21.00
2022-09-06T00:22:42.064Z,20.84
2022-09-06T00:25:09.150Z,21.00
2022-09-06T00:27:35.881Z,21.04
2022-09-06T00:30:04.596Z,21.30
2022-09-06T00:32:32.217Z,21.77
2022-09-06T00:34:58.775Z,20.82
2022-09-06T00:37:25.227Z,19.14
2022-09-06T00:39:51.769Z,18.54
2022-09-06T00:42:18.220Z,18.57
2022-09-06T00:44:44.760Z,18.75
2022-09-06T00:47:11.233Z,18.67
2022-09-06T00:49:44.290Z,19.04
2022-09-06T00:52:14.369Z,19.23
2022-09-06T00:54:42.202Z,19.19
2022-09-06T00:57:10.110Z,19.43
2022-09-06T00:59:39.683Z,19.49
2022-09-06T01:02:07.203Z,19.62
2022-09-06T01:04:34.141Z,19.62
2022-09-06T01:07:19.513Z,19.43
2022-09-06T01:09:49.210Z,19.26
2022-09-06T01:12:33.687Z,19.22
2022-09-06T01:15:25.727Z,19.18
2022-09-06T01:18:01.659Z,19.25
2022-09-06T01:20:35.151Z,19.20
2022-09-06T01:23:26.001Z,19.36
2022-09-06T01:26:23.659Z,19.38
2022-09-06T01:28:51.270Z,19.55
2022-09-06T01:31:33.211Z,19.62
2022-09-06T01:34:05.706Z,19.42
2022-09-06T01:37:08.326Z,19.41
2022-09-06T01:39:35.906Z,19.62
2022-09-06T01:42:13.386Z,19.53
2022-09-06T01:44:45.535Z,19.41
2022-09-06T01:47:40.013Z,19.43
2022-09-06T01:50:09.480Z,19.70
2022-09-06T01:53:03.699Z,19.80
2022-09-06T01:55:35.342Z,19.94
2022-09-06T01:58:21.460Z,20.05
2022-09-06T02:01:08.240Z,19.77
2022-09-06T02:03:42.810Z,19.47
2022-09-06T02:06:14.659Z,19.04
2022-09-06T02:08:46.353Z,19.06
2022-09-06T02:11:14.637Z,19.16
2022-09-06T02:13:50.205Z,19.38
2022-09-06T02:16:22.105Z,19.32
2022-09-06T02:19:06.783Z,19.26
2022-09-06T02:21:38.078Z,19.09
2022-09-06T02:24:08.681Z,19.18
2022-09-06T02:26:43.233Z,19.22
2022-09-06T02:29:10.066Z,19.29
2022-09-06T02:31:45.340Z,19.35
2022-09-06T02:34:16.531Z,19.25
2022-09-06T02:36:43.175Z,19.22
2022-09-06T02:39:10.122Z,19.34
2022-09-06T02:41:37.388Z,19.32
2022-09-06T02:44:03.942Z,19.32
2022-09-06T02:46:30.801Z,19.36
2022-09-06T02:48:57.809Z,19.36
2022-09-06T02:51:24.284Z,19.41
2022-09-06T02:53:50.755Z,19.38
2022-09-06T02:56:17.257Z,19.29
2022-09-06T02:58:43.839Z,19.25
2022-09-06T03:01:10.446Z,19.20
2022-09-06T03:03:36.993Z,18.98
2022-09-06T03:06:03.797Z,18.77
2022-09-06T03:08:33.582Z,18.64
2022-09-06T03:11:00.808Z,18.53
2022-09-06T03:13:27.560Z,18.53
2022-09-06T03:15:56.621Z,18.50
2022-09-06T03:18:24.688Z,18.44
2022-09-06T03:20:51.913Z,18.54
2022-09-06T03:23:19.784Z,18.70
2022-09-06T03:25:46.474Z,18.71
2022-09-06T03:28:13.235Z,18.83
2022-09-06T03:30:40.509Z,18.78
2022-09-06T03:33:07.334Z,18.91
2022-09-06T03:35:33.918Z,18.80
2022-09-06T03:38:00.386Z,18.87
2022-09-06T03:40:26.918Z,18.89
2022-09-06T03:42:53.377Z,18.94
2022-09-06T03:45:19.791Z,18.83
2022-09-06T03:47:46.427Z,18.80
2022-09-06T03:50:12.894Z,18.83
2022-09-06T03:52:39.390Z,18.77
2022-09-06T03:55:06.815Z,18.61
2022-09-06T03:57:33.419Z,18.58
2022-09-06T03:59:59.920Z,18.56
2022-09-06T04:02:26.451Z,18.56
2022-09-06T04:04:55.440Z,18.44
2022-09-06T04:07:22.940Z,18.41
2022-09-06T04:09:49.589Z,18.37
2022-09-06T04:12:16.060Z,18.46
2022-09-06T04:14:42.506Z,18.39
2022-09-06T04:17:09.013Z,18.43
2022-09-06T04:19:35.610Z,18.36
2022-09-06T04:22:02.094Z,18.23
2022-09-06T04:24:28.555Z,18.27
2022-09-06T04:26:54.952Z,18.20
2022-09-06T04:29:21.376Z,18.33
2022-09-06T04:31:47.945Z,18.16
2022-09-06T04:34:16.340Z,18.10
2022-09-06T04:36:47.697Z,18.17
2022-09-06T04:39:14.833Z,18.22
2022-09-06T04:41:42.234Z,18.16
2022-09-06T04:44:08.733Z,18.12
2022-09-06T04:46:35.281Z,18.04
2022-09-06T04:49:01.804Z,18.15
2022-09-06T04:51:28.749Z,18.13
2022-09-06T04:53:55.197Z,18.16
2022-09-06T04:56:24.467Z,18.06
2022-09-06T04:58:52.830Z,18.10
2022-09-06T05:01:20.500Z,18.08
2022-09-06T05:03:47.692Z,18.17
2022-09-06T05:06:24.615Z,18.08
2022-09-06T05:08:51.167Z,18.02
2022-09-06T05:11:17.750Z,17.99
2022-09-06T05:13:46.725Z,18.01
2022-09-06T05:16:13.219Z,17.99
2022-09-06T05:18:39.733Z,18.08
2022-09-06T05:21:07.584Z,18.08
2022-09-06T05:23:34.200Z,18.05
2022-09-06T05:26:00.646Z,18.02
2022-09-06T05:28:27.274Z,17.99
2022-09-06T05:30:53.917Z,18.08
2022-09-06T05:33:22.762Z,18.13
2022-09-06T05:35:49.626Z,18.13
2022-09-06T05:38:16.435Z,18.25
2022-09-06T05:40:43.396Z,18.25
2022-09-06T05:43:09.988Z,18.33
2022-09-06T05:45:36.587Z,18.39
2022-09-06T05:48:03.212Z,18.41
2022-09-06T05:50:29.944Z,18.40
2022-09-06T05:52:56.408Z,18.40
2022-09-06T05:55:23.050Z,18.48
2022-09-06T05:57:49.559Z,18.33
2022-09-06T06:00:16.107Z,18.40
2022-09-06T06:02:42.726Z,18.44
2022-09-06T06:05:09.383Z,18.53
2022-09-06T06:07:35.886Z,18.50
2022-09-06T06:10:02.364Z,18.64
2022-09-06T06:12:28.806Z,18.51
2022-09-06T06:14:55.262Z,18.56
2022-09-06T06:17:21.793Z,18.56
2022-09-06T06:19:48.571Z,18.75
2022-09-06T06:22:14.969Z,18.77
2022-09-06T06:24:41.379Z,18.84
2022-09-06T06:27:07.861Z,18.95
2022-09-06T06:32:35.919Z,19.11
2022-09-06T06:35:02.388Z,19.23
2022-09-06T06:37:28.890Z,19.34
2022-09-06T06:39:55.367Z,19.43
2022-09-06T06:42:21.867Z,19.53
2022-09-06T06:44:48.332Z,19.63
2022-09-06T06:47:14.747Z,19.80
2022-09-06T06:49:41.309Z,19.84
2022-09-06T06:52:07.811Z,19.88
2022-09-06T06:54:34.281Z,19.97
2022-09-06T06:57:00.717Z,20.05
2022-09-06T06:59:27.234Z,20.11
2022-09-06T07:01:53.890Z,20.24
2022-09-06T07:04:20.422Z,20.34
2022-09-06T07:12:25.909Z,20.51
2022-09-06T07:14:52.458Z,20.58
2022-09-06T07:17:18.895Z,20.66
2022-09-06T07:22:31.799Z,20.92
2022-09-06T07:24:58.209Z,21.34
2022-09-06T07:30:11.769Z,22.15
2022-09-06T07:32:38.278Z,22.26
2022-09-06T07:35:05.255Z,22.81
2022-09-06T07:37:31.716Z,22.81
2022-09-06T07:39:58.212Z,23.19
2022-09-06T07:42:24.694Z,24.53
2022-09-06T07:44:51.273Z,24.01
2022-09-06T07:55:33.476Z,23.74
2022-09-06T07:57:59.933Z,23.67
2022-09-06T08:00:27.216Z,23.92
2022-09-06T08:02:53.627Z,24.40
2022-09-06T08:10:53.319Z,24.01
2022-09-06T08:13:19.738Z,24.17
2022-09-06T08:15:46.251Z,24.41
2022-09-06T08:18:12.693Z,24.42
2022-09-06T08:20:39.236Z,24.40
2022-09-06T08:23:11.642Z,24.25
2022-09-06T08:25:38.130Z,24.82
2022-09-06T08:28:04.587Z,25.13
2022-09-06T08:30:31.191Z,25.67
2022-09-06T08:32:57.736Z,25.19
2022-09-06T08:35:24.162Z,25.37
2022-09-06T08:37:50.586Z,25.70
2022-09-06T08:40:21.389Z,26.62
2022-09-06T08:42:48.622Z,25.44
2022-09-06T08:45:19.331Z,25.78
2022-09-06T08:47:45.789Z,26.47
2022-09-06T08:50:12.258Z,26.19
2022-09-06T08:53:17.266Z,25.87
2022-09-06T08:56:16.999Z,26.82
2022-09-06T08:59:13.444Z,26.63
2022-09-06T09:02:04.767Z,27.10
2022-09-06T09:04:33.219Z,26.57
2022-09-06T09:07:12.303Z,26.09
2022-09-06T09:09:38.709Z,26.97
2022-09-06T09:12:06.338Z,27.07
2022-09-06T09:14:37.936Z,28.24
2022-09-06T09:17:21.607Z,29.76
2022-09-06T09:19:48.576Z,27.82
2022-09-06T09:22:18.281Z,27.14
2022-09-06T09:24:47.548Z,28.50
2022-09-06T09:27:18.081Z,28.31
2022-09-06T09:32:53.915Z,29.18
2022-09-06T09:35:20.414Z,29.80
2022-09-06T09:37:50.606Z,30.53
2022-09-06T09:40:26.748Z,28.79
2022-09-06T09:42:57.404Z,28.85
2022-09-06T09:45:29.145Z,29.66
2022-09-06T09:47:55.978Z,30.02
2022-09-06T09:50:24.941Z,30.65
2022-09-06T09:52:51.497Z,30.38
2022-09-06T09:55:23.472Z,30.34
2022-09-06T09:57:51.023Z,29.73
2022-09-06T10:00:40.731Z,28.68
2022-09-06T10:03:20.134Z,30.66
2022-09-06T10:06:02.498Z,31.48
2022-09-06T10:08:33.269Z,30.78
2022-09-06T10:11:00.253Z,30.02
2022-09-06T10:13:34.202Z,29.18
2022-09-06T10:16:03.309Z,30.97
2022-09-06T10:18:35.857Z,32.15
2022-09-06T10:21:22.307Z,32.49
2022-09-06T10:24:27.323Z,31.48
2022-09-06T10:27:01.018Z,32.47
2022-09-06T10:29:43.602Z,32.87
2022-09-06T10:32:27.255Z,31.54
2022-09-06T10:35:05.850Z,31.74
2022-09-06T10:37:48.464Z,29.98
2022-09-06T10:40:30.386Z,32.82
2022-09-06T10:42:59.613Z,34.03
2022-09-06T10:45:47.137Z,34.66
2022-09-06T10:48:24.312Z,34.10
2022-09-06T10:50:58.587Z,32.37
2022-09-06T10:53:33.944Z,32.28
2022-09-06T10:56:08.623Z,34.02
2022-09-06T11:01:39.205Z,32.45
2022-09-06T11:04:13.142Z,32.46
2022-09-06T11:06:52.542Z,33.04
2022-09-06T11:09:33.998Z,34.03
2022-09-06T11:12:17.805Z,36.36
2022-09-06T11:14:44.439Z,35.76
2022-09-06T11:17:41.095Z,36.00
2022-09-06T11:20:34.603Z,33.00
2022-09-06T11:23:25.958Z,31.47
2022-09-06T11:26:18.373Z,29.63
2022-09-06T11:28:51.783Z,31.82
2022-09-06T11:34:33.786Z,32.62
2022-09-06T11:37:08.796Z,33.52
2022-09-06T11:42:46.413Z,34.70
2022-09-06T11:45:36.348Z,36.68
2022-09-06T11:48:25.286Z,37.51
2022-09-06T11:51:01.086Z,37.88
2022-09-06T11:53:31.094Z,35.05
2022-09-06T11:56:00.305Z,35.48
2022-09-06T11:58:31.516Z,36.50
2022-09-06T12:01:13.432Z,36.29
2022-09-06T12:06:44.974Z,36.21
2022-09-06T12:09:37.790Z,34.93
2022-09-06T12:12:04.848Z,33.74
2022-09-06T12:14:36.983Z,34.60
2022-09-06T12:17:05.040Z,35.57
2022-09-06T12:19:53.122Z,36.08
2022-09-06T12:22:35.966Z,37.07
2022-09-06T12:25:16.077Z,36.90
2022-09-06T12:28:05.527Z,34.45
2022-09-06T12:30:37.345Z,36.50
2022-09-06T12:33:31.164Z,34.60
2022-09-06T12:36:15.965Z,35.24
2022-09-06T12:38:55.782Z,36.24
2022-09-06T12:41:22.755Z,37.63
2022-09-06T12:43:50.026Z,37.56
2022-09-06T12:46:16.680Z,38.43
2022-09-06T12:48:44.836Z,37.17
2022-09-06T12:51:20.113Z,35.78
2022-09-06T12:53:50.877Z,36.64
2022-09-06T12:56:20.903Z,35.49
2022-09-06T12:58:47.517Z,35.75
2022-09-06T13:01:33.601Z,36.84
2022-09-06T13:04:22.132Z,36.91
2022-09-06T13:06:49.031Z,34.95
2022-09-06T13:09:19.391Z,35.59
2022-09-06T13:11:52.197Z,35.52
2022-09-06T13:14:27.027Z,35.75
2022-09-06T13:16:57.858Z,36.73
2022-09-06T13:19:32.722Z,37.14
2022-09-06T13:22:00.261Z,35.39
2022-09-06T13:24:45.954Z,34.40
2022-09-06T13:27:36.538Z,34.25
2022-09-06T13:30:09.117Z,35.79
2022-09-06T13:32:45.130Z,36.23
2022-09-06T13:35:23.801Z,35.98
2022-09-06T13:37:50.490Z,35.96
2022-09-06T13:41:09.650Z,34.76
2022-09-06T13:43:41.547Z,33.98
2022-09-06T13:46:10.851Z,35.58
2022-09-06T13:48:39.345Z,35.90
2022-09-06T13:51:09.738Z,35.95
2022-09-06T13:53:36.388Z,34.71
2022-09-06T13:56:03.457Z,34.56
2022-09-06T13:58:30.313Z,34.15
2022-09-06T14:00:56.909Z,34.02
2022-09-06T14:03:32.867Z,35.65
2022-09-06T14:06:02.512Z,35.00
2022-09-06T14:08:49.290Z,33.79
2022-09-06T14:11:17.358Z,34.00
2022-09-06T14:13:47.264Z,33.79
2022-09-06T14:16:13.903Z,33.71
2022-09-06T14:18:40.544Z,32.72
2022-09-06T14:21:07.870Z,34.78
2022-09-06T14:23:34.397Z,34.03
2022-09-06T14:26:03.199Z,35.24
2022-09-06T14:28:32.271Z,35.11
2022-09-06T14:30:59.036Z,34.06
2022-09-06T14:33:26.018Z,34.36
2022-09-06T14:35:52.436Z,35.66
2022-09-06T14:38:18.901Z,35.01
2022-09-06T14:40:45.353Z,32.72
2022-09-06T14:43:11.972Z,32.62
2022-09-06T14:45:38.499Z,33.69
2022-09-06T14:48:05.587Z,34.71
2022-09-06T14:50:32.030Z,35.17
2022-09-06T14:52:58.843Z,35.52
2022-09-06T14:55:25.857Z,35.51
2022-09-06T14:57:52.387Z,35.79
2022-09-06T15:00:18.899Z,36.32
2022-09-06T15:02:45.363Z,35.27
2022-09-06T15:05:11.895Z,35.32
2022-09-06T15:07:38.330Z,35.62
2022-09-06T15:10:05.219Z,36.06
2022-09-06T15:12:32.439Z,36.67
2022-09-06T15:14:59.210Z,36.53
2022-09-06T15:17:25.705Z,36.26
2022-09-06T15:19:52.177Z,36.19
2022-09-06T15:22:18.617Z,35.65
2022-09-06T15:24:45.560Z,35.25
2022-09-06T15:27:12.142Z,35.03
2022-09-06T15:29:39.139Z,35.68
2022-09-06T15:32:05.870Z,35.23
2022-09-06T15:34:32.376Z,35.69
2022-09-06T15:36:58.932Z,36.29
2022-09-06T15:39:25.568Z,36.47
2022-09-06T15:41:52.551Z,36.44
2022-09-06T15:44:20.744Z,36.73
2022-09-06T15:46:55.025Z,35.98
2022-09-06T15:49:31.271Z,36.12
2022-09-06T15:52:00.753Z,35.92
2022-09-06T15:54:46.565Z,35.96
2022-09-06T15:57:14.822Z,35.93
2022-09-06T15:59:41.286Z,36.23
2022-09-06T16:02:08.641Z,36.46
2022-09-06T16:04:35.098Z,36.24
2022-09-06T16:07:01.900Z,35.05
2022-09-06T16:09:29.189Z,35.49
2022-09-06T16:11:55.688Z,35.34
2022-09-06T16:14:22.163Z,34.88
2022-09-06T16:16:48.713Z,35.45
2022-09-06T16:19:15.227Z,34.12
2022-09-06T16:21:42.970Z,34.36
2022-09-06T16:24:11.749Z,34.41
2022-09-06T16:26:40.789Z,34.91
2022-09-06T16:29:08.526Z,35.34
2022-09-06T16:31:39.802Z,35.39
2022-09-06T16:34:07.762Z,35.20
2022-09-06T16:36:34.704Z,35.03
2022-09-06T16:39:01.226Z,34.73
2022-09-06T16:41:36.276Z,34.98
2022-09-06T16:44:03.427Z,34.93
2022-09-06T16:46:30.092Z,34.39
2022-09-06T16:49:00.900Z,34.10
2022-09-06T16:51:29.145Z,33.45
2022-09-06T16:53:56.578Z,32.99
2022-09-06T16:56:26.239Z,32.36
2022-09-06T16:58:55.042Z,31.94
2022-09-06T17:01:22.490Z,31.53
2022-09-06T17:03:49.256Z,31.38
2022-09-06T17:06:16.011Z,31.19
2022-09-06T17:08:42.811Z,30.87
2022-09-06T17:11:18.360Z,30.49
2022-09-06T17:13:46.605Z,30.28
2022-09-06T17:16:32.844Z,30.38
2022-09-06T17:19:01.210Z,30.28
2022-09-06T17:21:29.059Z,30.23
2022-09-06T17:23:56.151Z,30.14
2022-09-06T17:26:23.311Z,30.07
2022-09-06T17:28:50.558Z,29.97
2022-09-06T17:31:23.561Z,29.90
2022-09-06T17:33:52.184Z,29.86
2022-09-06T17:36:23.427Z,29.74
2022-09-06T17:38:53.383Z,29.59
2022-09-06T17:41:24.237Z,29.59
2022-09-06T17:43:52.814Z,29.40
2022-09-06T17:46:19.710Z,29.23
2022-09-06T17:48:46.589Z,29.19
2022-09-06T17:51:13.185Z,29.14
2022-09-06T17:53:41.162Z,29.11
2022-09-06T17:57:36.129Z,28.72
2022-09-06T18:00:03.272Z,28.56
2022-09-06T18:02:30.060Z,28.45
2022-09-06T18:04:56.764Z,28.34
2022-09-06T18:07:27.934Z,28.17
2022-09-06T18:09:55.144Z,28.12
2022-09-06T18:12:24.047Z,28.17
2022-09-06T18:14:54.498Z,28.24
2022-09-06T18:17:21.044Z,28.43
2022-09-06T18:19:47.750Z,28.24
2022-09-06T18:22:15.043Z,28.13
2022-09-06T18:24:41.901Z,27.96
2022-09-06T18:27:08.811Z,28.03
2022-09-06T18:29:35.363Z,27.99
2022-09-06T18:32:02.661Z,27.72
2022-09-06T18:34:29.305Z,27.62
2022-09-06T18:36:55.831Z,27.59
2022-09-06T18:39:22.420Z,27.63
2022-09-06T18:42:01.284Z,27.66
2022-09-06T18:44:32.429Z,27.73
2022-09-06T18:47:02.309Z,27.68
2022-09-06T18:49:31.275Z,27.83
2022-09-06T18:51:59.851Z,27.79
2022-09-06T18:54:26.804Z,27.75
2022-09-06T18:56:54.339Z,27.62
2022-09-06T18:59:21.118Z,27.62
2022-09-06T19:01:48.254Z,27.62
2022-09-06T19:04:14.947Z,27.31
2022-09-06T19:06:44.389Z,27.08
2022-09-06T19:09:13.950Z,26.95
2022-09-06T19:11:45.704Z,26.98
2022-09-06T19:14:13.066Z,26.97
2022-09-06T19:16:47.697Z,26.91
2022-09-06T19:19:14.875Z,26.94
2022-09-06T19:21:42.486Z,26.74
2022-09-06T19:24:11.685Z,26.66
2022-09-06T19:26:41.636Z,26.56
2022-09-06T19:29:13.763Z,26.52
2022-09-06T19:31:40.422Z,26.50
2022-09-06T19:34:07.508Z,26.42
2022-09-06T19:36:34.359Z,26.29
2022-09-06T19:39:05.052Z,26.26
2022-09-06T19:41:34.352Z,26.22
2022-09-06T19:44:01.575Z,26.16
2022-09-06T19:46:28.149Z,26.11
2022-09-06T19:48:58.757Z,26.09
2022-09-06T19:51:25.784Z,26.08
2022-09-06T19:53:54.773Z,26.04
2022-09-06T19:56:26.918Z,26.01
2022-09-06T19:58:56.051Z,25.94
2022-09-06T20:01:24.299Z,25.89
2022-09-06T20:03:51.854Z,25.87
2022-09-06T20:06:18.631Z,25.75
2022-09-06T20:08:53.369Z,25.73
2022-09-06T20:11:26.667Z,25.67
2022-09-06T20:13:53.739Z,25.54
2022-09-06T20:16:21.194Z,25.50
2022-09-06T20:18:48.961Z,25.44
2022-09-06T20:21:18.229Z,25.41
2022-09-06T20:23:49.710Z,25.31
2022-09-06T20:26:16.442Z,25.37
2022-09-06T20:28:44.064Z,25.27
2022-09-06T20:31:13.393Z,25.23
2022-09-06T20:33:39.895Z,25.22
2022-09-06T20:36:08.520Z,25.10
2022-09-06T20:38:41.089Z,25.09
2022-09-06T20:41:12.097Z,25.04
2022-09-06T20:43:39.689Z,25.02
2022-09-06T20:46:17.455Z,24.98
2022-09-06T20:48:45.508Z,24.93
2022-09-06T20:51:19.039Z,24.69
2022-09-06T20:53:48.171Z,24.14
2022-09-06T20:56:17.313Z,23.97
2022-09-06T20:58:53.309Z,23.82
2022-09-06T21:01:25.274Z,23.66
2022-09-06T21:03:57.833Z,23.58
2022-09-06T21:06:26.009Z,23.46
2022-09-06T21:08:53.107Z,23.49
2022-09-06T21:11:20.145Z,23.38
2022-09-06T21:13:51.252Z,23.26
2022-09-06T21:16:24.001Z,23.19
2022-09-06T21:18:56.977Z,23.15
2022-09-06T21:21:25.379Z,23.19
2022-09-06T21:23:51.940Z,23.16
2022-09-06T21:26:18.568Z,23.16
2022-09-06T21:28:46.454Z,23.24
2022-09-06T21:31:15.420Z,23.32
2022-09-06T21:33:46.686Z,23.39
2022-09-06T21:36:16.349Z,23.36
2022-09-06T21:38:45.597Z,23.49
2022-09-06T21:41:14.054Z,23.73
2022-09-06T21:43:41.261Z,23.90
2022-09-06T21:46:14.199Z,24.09
2022-09-06T21:48:43.725Z,24.18
2022-09-06T21:51:14.072Z,24.24
2022-09-06T21:53:43.629Z,24.27
2022-09-06T21:56:11.133Z,24.42
2022-09-06T21:58:37.938Z,24.42
2022-09-06T22:01:05.223Z,24.41
2022-09-06T22:03:34.476Z,24.34
2022-09-06T22:06:18.328Z,24.27
2022-09-06T22:08:45.575Z,24.37
2022-09-06T22:11:17.976Z,24.24
2022-09-06T22:13:45.367Z,24.14
2022-09-06T22:16:13.665Z,24.03
2022-09-06T22:18:40.241Z,23.93
2022-09-06T22:21:12.294Z,23.87
2022-09-06T22:23:39.454Z,23.79
2022-09-06T22:26:11.639Z,23.69
2022-09-06T22:28:38.629Z,23.79
2022-09-06T22:31:05.747Z,23.74
2022-09-06T22:33:32.429Z,23.76
2022-09-06T22:36:01.979Z,23.76
2022-09-06T22:38:29.694Z,23.83
2022-09-06T22:40:59.698Z,23.90
2022-09-06T22:43:26.482Z,23.82
2022-09-06T22:46:02.799Z,23.61
2022-09-06T22:48:29.432Z,23.56
2022-09-06T22:50:56.027Z,23.56
2022-09-06T22:53:22.442Z,23.47
2022-09-06T22:55:49.147Z,23.45
2022-09-06T22:58:15.693Z,23.39
2022-09-06T23:00:42.655Z,23.49
2022-09-06T23:03:09.143Z,23.50
2022-09-06T23:05:35.764Z,23.55
2022-09-06T23:08:03.603Z,23.45
2022-09-06T23:10:30.535Z,23.39
2022-09-06T23:12:58.473Z,23.38
2022-09-06T23:15:25.218Z,23.38
2022-09-06T23:17:51.978Z,23.49
2022-09-06T23:20:19.213Z,23.96
2022-09-06T23:22:47.454Z,22.91
2022-09-06T23:25:14.124Z,21.60
2022-09-06T23:27:40.660Z,20.10
2022-09-06T23:30:07.917Z,18.67
2022-09-06T23:32:34.628Z,18.15
2022-09-06T23:35:01.143Z,17.94
2022-09-06T23:37:27.632Z,17.86
2022-09-06T23:39:54.326Z,17.75
2022-09-06T23:42:22.948Z,17.77
2022-09-06T23:44:54.298Z,17.78
2022-09-06T23:47:20.931Z,17.54
2022-09-06T23:49:47.423Z,17.67
2022-09-06T23:52:13.863Z,17.85
2022-09-06T23:54:40.390Z,17.88
